createdAt,value
2018-12-16T00:04:02.414Z,98253.98
2018-12-16T00:09:07.877Z,98257.31
2018-12-16T00:14:13.089Z,98263.82
2018-12-16T00:19:16.268Z,98263.63
2018-12-16T00:24:19.579Z,98263.44
2018-12-16T00:29:22.757Z,98260.69
2018-12-16T00:34:26.087Z,98260.73
2018-12-16T00:39:29.352Z,98262.45
2018-12-16T00:44:32.672Z,98251.40
2018-12-16T00:49:35.990Z,98256.41
2018-12-16T00:54:39.499Z,98255.48
2018-12-16T00:59:42.807Z,98254.25
2018-12-16T01:04:45.971Z,98249.72
2018-12-16T01:09:49.156Z,98245.17
2018-12-16T01:14:52.354Z,98238.95
2018-12-16T01:19:55.627Z,98238.99
2018-12-16T01:24:59.270Z,98234.13
2018-12-16T01:30:02.414Z,98223.91
2018-12-16T01:35:06.082Z,98222.78
2018-12-16T01:40:09.299Z,98231.77
2018-12-16T01:45:12.703Z,98223.89
2018-12-16T01:50:15.955Z,98222.91
2018-12-16T01:55:19.326Z,98217.06
2018-12-16T02:00:23.149Z,98200.63
2018-12-16T02:05:26.441Z,98200.77
2018-12-16T02:10:29.724Z,98193.56
2018-12-16T02:15:32.995Z,98187.89
2018-12-16T02:20:36.258Z,98185.30
2018-12-16T02:25:39.557Z,98181.00
2018-12-16T02:30:42.777Z,98180.67
2018-12-16T02:35:46.117Z,98183.16
2018-12-16T02:40:49.419Z,98179.17
2018-12-16T02:45:52.682Z,98182.92
2018-12-16T02:50:55.956Z,98172.85
2018-12-16T02:55:59.289Z,98171.11
2018-12-16T03:01:02.647Z,98169.95
2018-12-16T03:06:05.957Z,98164.56
2018-12-16T03:11:09.172Z,98167.89
2018-12-16T03:16:12.440Z,98168.97
2018-12-16T03:21:15.687Z,98173.36
2018-12-16T03:26:19.583Z,98168.43
2018-12-16T03:31:22.758Z,98176.58
2018-12-16T03:36:27.012Z,98179.25
2018-12-16T03:41:30.288Z,98182.48
2018-12-16T03:46:33.615Z,98178.09
2018-12-16T03:51:36.856Z,98177.30
2018-12-16T03:56:40.038Z,98176.88
2018-12-16T04:01:45.385Z,98172.94
2018-12-16T04:06:48.531Z,98173.83
2018-12-16T04:11:51.996Z,98173.83
2018-12-16T04:16:55.288Z,98167.56
2018-12-16T04:21:58.593Z,98167.45
2018-12-16T04:27:01.884Z,98158.88
2018-12-16T04:32:05.189Z,98158.47
2018-12-16T04:37:08.438Z,98148.87
2018-12-16T04:42:11.639Z,98156.69
2018-12-16T04:47:14.941Z,98148.40
2018-12-16T04:52:18.130Z,98154.02
2018-12-16T04:57:24.997Z,98155.01
2018-12-16T05:02:29.483Z,98162.78
2018-12-16T05:07:32.947Z,98167.83
2018-12-16T05:12:36.174Z,98180.25
2018-12-16T05:17:39.413Z,98182.94
2018-12-16T05:22:42.649Z,98177.95
2018-12-16T05:27:45.944Z,98172.89
2018-12-16T05:32:49.150Z,98172.04
2018-12-16T05:37:52.389Z,98170.97
2018-12-16T05:42:55.673Z,98164.35
2018-12-16T05:47:59.154Z,98161.45
2018-12-16T05:53:02.437Z,98162.13
2018-12-16T05:58:05.895Z,98151.16
2018-12-16T06:03:09.130Z,98143.49
2018-12-16T06:08:12.410Z,98130.42
2018-12-16T06:13:16.052Z,98138.19
2018-12-16T06:18:19.317Z,98143.44
2018-12-16T06:23:22.597Z,98145.28
2018-12-16T06:28:25.979Z,98145.03
2018-12-16T06:33:29.228Z,98145.61
2018-12-16T06:38:32.531Z,98146.16
2018-12-16T06:43:35.695Z,98152.18
2018-12-16T06:48:38.837Z,98153.62
2018-12-16T06:53:42.120Z,98160.38
2018-12-16T06:58:45.402Z,98161.91
2018-12-16T07:03:48.885Z,98147.98
2018-12-16T07:08:52.181Z,98149.11
2018-12-16T07:13:55.597Z,98148.11
2018-12-16T07:18:58.997Z,98150.67
2018-12-16T07:24:09.019Z,98147.52
2018-12-16T07:29:08.646Z,98145.62
2018-12-16T07:34:12.048Z,98151.33
2018-12-16T07:39:15.376Z,98147.60
2018-12-16T07:44:19.044Z,98154.88
2018-12-16T07:49:22.393Z,98155.89
2018-12-16T07:54:25.583Z,98160.09
2018-12-16T07:59:28.925Z,98170.02
2018-12-16T08:04:33.228Z,98174.64
2018-12-16T08:09:36.507Z,98174.88
2018-12-16T08:14:39.791Z,98179.30
2018-12-16T08:19:43.079Z,98168.53
2018-12-16T08:24:46.649Z,98170.91
2018-12-16T08:29:49.997Z,98176.06
2018-12-16T08:34:53.206Z,98171.34
2018-12-16T08:39:56.519Z,98173.33
2018-12-16T08:44:59.911Z,98171.47
2018-12-16T08:50:03.590Z,98161.22
2018-12-16T08:55:07.128Z,98159.90
2018-12-16T09:00:10.753Z,98156.82
2018-12-16T09:05:14.123Z,98154.55
2018-12-16T09:10:17.622Z,98136.98
2018-12-16T09:15:20.842Z,98129.75
2018-12-16T09:20:24.225Z,98114.55
2018-12-16T09:25:27.386Z,98105.43
2018-12-16T09:30:30.667Z,98090.75
2018-12-16T09:35:33.921Z,98090.36
2018-12-16T09:40:37.164Z,98083.65
2018-12-16T09:45:40.664Z,98078.50
2018-12-16T09:50:44.086Z,98074.17
2018-12-16T09:55:47.238Z,98061.15
2018-12-16T10:00:50.527Z,98062.04
2018-12-16T10:05:53.732Z,98051.00
2018-12-16T10:10:57.536Z,98044.63
2018-12-16T10:16:00.763Z,98049.32
2018-12-16T10:21:04.415Z,98038.88
2018-12-16T10:26:07.683Z,98037.17
2018-12-16T10:31:11.002Z,98042.05
2018-12-16T10:36:14.347Z,98042.73
2018-12-16T10:41:17.509Z,98027.27
2018-12-16T10:46:20.849Z,98035.05
2018-12-16T10:51:24.045Z,98033.33
2018-12-16T10:56:27.466Z,98032.23
2018-12-16T11:01:30.759Z,98022.95
2018-12-16T11:06:34.045Z,98018.83
2018-12-16T11:11:37.316Z,98028.70
2018-12-16T11:16:40.565Z,98020.58
2018-12-16T11:21:45.780Z,98011.41
2018-12-16T11:26:49.047Z,98009.40
2018-12-16T11:31:52.322Z,98014.67
2018-12-16T11:36:55.707Z,98022.42
2018-12-16T11:41:58.900Z,98020.72
2018-12-16T11:47:02.157Z,98012.69
2018-12-16T11:52:05.462Z,98022.76
2018-12-16T11:57:08.918Z,98018.53
2018-12-16T12:02:12.313Z,98015.69
2018-12-16T12:07:17.700Z,98011.37
2018-12-16T12:12:20.958Z,98004.56
2018-12-16T12:17:24.193Z,98005.67
2018-12-16T12:22:27.457Z,98005.95
2018-12-16T12:27:30.947Z,98006.41
2018-12-16T12:32:34.715Z,98006.89
2018-12-16T12:37:39.083Z,98008.33
2018-12-16T12:42:42.303Z,98001.78
2018-12-16T12:47:45.554Z,98004.66
2018-12-16T12:52:48.727Z,98005.31
2018-12-16T12:57:53.085Z,97991.88
2018-12-16T13:02:56.553Z,98005.24
2018-12-16T13:07:59.998Z,98003.88
2018-12-16T13:13:03.278Z,98002.25
2018-12-16T13:18:06.773Z,98005.09
2018-12-16T13:23:10.093Z,97997.64
2018-12-16T13:28:13.449Z,97999.85
2018-12-16T13:33:16.743Z,98003.63
2018-12-16T13:38:19.957Z,98007.38
2018-12-16T13:43:23.210Z,98011.17
2018-12-16T13:48:26.480Z,98012.64
2018-12-16T13:53:29.749Z,98014.36
2018-12-16T13:58:32.916Z,98015.73
2018-12-16T14:03:36.203Z,98014.20
2018-12-16T14:08:40.045Z,98010.29
2018-12-16T14:13:44.554Z,98001.53
2018-12-16T14:18:48.535Z,98010.20
2018-12-16T14:23:51.687Z,98007.30
2018-12-16T14:28:54.891Z,98024.59
2018-12-16T14:33:58.172Z,98028.78
2018-12-16T14:39:01.288Z,98028.13
2018-12-16T14:44:06.605Z,98037.81
2018-12-16T14:49:09.901Z,98051.85
2018-12-16T14:54:13.273Z,98042.34
2018-12-16T14:59:16.662Z,98043.56
2018-12-16T15:04:20.090Z,98064.90
2018-12-16T15:09:23.314Z,98076.69
2018-12-16T15:14:26.555Z,98095.81
2018-12-16T15:19:29.858Z,98085.67
2018-12-16T15:24:33.246Z,98095.89
2018-12-16T15:29:36.668Z,98104.36
2018-12-16T15:34:41.429Z,98109.19
2018-12-16T15:39:46.453Z,98112.09
2018-12-16T15:44:49.909Z,98116.03
2018-12-16T15:49:53.152Z,98122.14
2018-12-16T15:54:56.595Z,98127.70
2018-12-16T16:00:00.041Z,98127.89
2018-12-16T16:05:03.457Z,98123.59
2018-12-16T16:10:08.057Z,98127.70
2018-12-16T16:15:11.354Z,98123.12
2018-12-16T16:20:14.749Z,98130.82
2018-12-16T16:25:18.171Z,98140.34
2018-12-16T16:30:21.496Z,98148.42
2018-12-16T16:35:24.995Z,98149.66
2018-12-16T16:40:29.541Z,98144.86
2018-12-16T16:45:32.771Z,98169.02
2018-12-16T16:50:36.056Z,98153.84
2018-12-16T16:55:39.838Z,98143.94
2018-12-16T17:00:43.134Z,98171.13
2018-12-16T17:05:46.639Z,98169.31
2018-12-16T17:10:50.038Z,98170.13
2018-12-16T17:15:53.322Z,98168.78
2018-12-16T17:20:56.647Z,98177.97
2018-12-16T17:26:00.035Z,98178.66
2018-12-16T17:31:03.949Z,98187.33
2018-12-16T17:36:07.525Z,98190.18
2018-12-16T17:41:10.843Z,98167.56
2018-12-16T17:46:14.452Z,98184.38
2018-12-16T17:51:18.063Z,98185.42
2018-12-16T17:56:21.618Z,98220.28
2018-12-16T18:01:24.997Z,98197.84
2018-12-16T18:06:28.524Z,98200.57
2018-12-16T18:11:31.990Z,98212.34
2018-12-16T18:16:35.446Z,98197.32
2018-12-16T18:21:38.950Z,98215.13
2018-12-16T18:26:44.156Z,98194.37
2018-12-16T18:31:47.831Z,98184.99
2018-12-16T18:36:51.376Z,98189.58
2018-12-16T18:41:55.281Z,98175.47
2018-12-16T18:46:58.695Z,98203.00
2018-12-16T18:52:02.089Z,98194.97
2018-12-16T18:57:07.397Z,98211.94
2018-12-16T19:02:12.480Z,98206.74
2018-12-16T19:07:15.934Z,98210.00
2018-12-16T19:12:19.260Z,98218.69
2018-12-16T19:17:22.544Z,98204.48
2018-12-16T19:22:26.235Z,98216.80
2018-12-16T19:27:29.827Z,98262.30
2018-12-16T19:32:33.714Z,98233.27
2018-12-16T19:37:39.099Z,98218.16
2018-12-16T19:42:42.638Z,98262.45
2018-12-16T19:47:49.660Z,98250.92
2018-12-16T19:52:53.380Z,98246.46
2018-12-16T19:57:56.690Z,98247.09
2018-12-16T20:03:00.078Z,98236.55
2018-12-16T20:08:03.674Z,98253.42
2018-12-16T20:13:07.013Z,98256.45
2018-12-16T20:18:10.271Z,98256.47
2018-12-16T20:23:14.189Z,98259.17
2018-12-16T20:28:17.589Z,98263.87
2018-12-16T20:33:21.235Z,98269.97
2018-12-16T20:38:24.844Z,98298.12
2018-12-16T20:43:28.083Z,98273.11
2018-12-16T20:48:31.306Z,98256.88
2018-12-16T20:53:34.616Z,98256.17
2018-12-16T20:58:37.958Z,98277.41
2018-12-16T21:03:41.568Z,98263.24
2018-12-16T21:08:44.937Z,98287.90
2018-12-16T21:13:53.753Z,98243.92
2018-12-16T21:18:57.245Z,98259.11
2018-12-16T21:24:01.150Z,98264.14
2018-12-16T21:29:04.537Z,98254.66
2018-12-16T21:34:08.040Z,98259.12
2018-12-16T21:39:11.582Z,98250.84
2018-12-16T21:44:16.880Z,98265.81
2018-12-16T21:49:20.118Z,98262.34
2018-12-16T21:54:23.407Z,98271.29
2018-12-16T21:59:26.827Z,98259.34
2018-12-16T22:04:30.277Z,98268.72
2018-12-16T22:09:33.981Z,98262.36
2018-12-16T22:14:37.129Z,98260.20
2018-12-16T22:19:40.440Z,98259.83
2018-12-16T22:24:43.685Z,98259.33
2018-12-16T22:29:46.876Z,98248.13
2018-12-16T22:34:50.124Z,98238.09
2018-12-16T22:39:53.476Z,98252.27
2018-12-16T22:44:57.016Z,98256.89
2018-12-16T22:50:01.304Z,98242.70
2018-12-16T22:55:05.507Z,98238.60
2018-12-16T23:00:13.560Z,98245.41
2018-12-16T23:05:18.853Z,98254.69
2018-12-16T23:10:22.204Z,98250.05
2018-12-16T23:15:25.639Z,98262.55
2018-12-16T23:20:28.944Z,98260.70
2018-12-16T23:25:32.211Z,98260.73
2018-12-16T23:30:35.602Z,98271.92
2018-12-16T23:35:38.798Z,98270.13
2018-12-16T23:40:42.209Z,98280.69
2018-12-16T23:45:45.505Z,98284.51
2018-12-16T23:50:49.902Z,98293.97
2018-12-16T23:55:53.243Z,98285.34
